Time;durP1;ratioP1;P1;durP2;ratioP2;P2;SDS_P1;SDS_P2;PMS_P1;PMS_P2;Temp;Humidity;BMP_temperature;BMP_pressure;BME280_temperature;BME280_humidity;BME280_pressure;Samples;Min_cycle;Max_cycle;Signal;HPM_P1;HPM_P2
2023/09/19 00:00:19;;;;;;;0.10;0.10;;;;;;;15.04;100.00;95971.22;4993114;28;20925;-79
2023/09/19 00:03:08;;;;;;;0.10;0.10;;;;;;;14.81;100.00;95977.44;4993721;28;20026;-79
2023/09/19 00:05:55;;;;;;;0.10;0.10;;;;;;;14.64;100.00;95981.38;4996268;28;20114;-79
2023/09/19 00:08:44;;;;;;;0.10;0.10;;;;;;;14.53;100.00;95984.44;4989562;28;20129;-79
2023/09/19 00:11:30;;;;;;;0.10;0.10;;;;;;;14.41;100.00;95984.81;4988761;28;20037;-79
2023/09/19 00:14:17;;;;;;;0.10;0.10;;;;;;;14.31;100.00;95982.19;4989961;28;20076;-79
2023/09/19 00:17:07;;;;;;;0.00;0.00;;;;;;;14.29;100.00;95984.38;4989476;28;20064;-79
2023/09/19 00:19:53;;;;;;;0.10;0.10;;;;;;;14.24;100.00;95990.63;4990445;28;20037;-77
2023/09/19 00:22:41;;;;;;;0.00;0.00;;;;;;;14.12;100.00;95990.16;4989454;28;20045;-77
2023/09/19 00:25:27;;;;;;;0.08;0.08;;;;;;;14.00;100.00;95995.91;4990086;28;20050;-77
2023/09/19 00:28:16;;;;;;;0.00;0.00;;;;;;;13.90;100.00;95990.59;4990642;28;20045;-79
2023/09/19 00:31:05;;;;;;;0.10;0.10;;;;;;;13.82;100.00;95999.28;4988863;28;20121;-79
2023/09/19 00:33:51;;;;;;;0.10;0.10;;;;;;;13.77;100.00;96001.97;4987458;28;20056;-79
2023/09/19 00:36:42;;;;;;;0.00;0.00;;;;;;;13.68;100.00;96003.66;4975427;28;20932;-79
2023/09/19 00:39:31;;;;;;;0.10;0.10;;;;;;;13.64;100.00;96008.81;4990372;28;20077;-79
2023/09/19 00:42:20;;;;;;;0.10;0.10;;;;;;;13.57;100.00;96001.06;4977611;28;20522;-79
2023/09/19 00:45:11;;;;;;;0.00;0.00;;;;;;;13.54;100.00;95998.94;4989122;28;20124;-78
2023/09/19 00:48:03;;;;;;;0.10;0.10;;;;;;;13.49;100.00;96009.69;4969658;28;20041;-79
2023/09/19 00:50:50;;;;;;;0.10;0.10;;;;;;;13.44;100.00;96001.66;4987746;28;20048;-79
2023/09/19 00:53:35;;;;;;;0.10;0.10;;;;;;;13.41;100.00;96010.28;4988724;28;20318;-79
2023/09/19 00:56:23;;;;;;;0.10;0.10;;;;;;;13.34;100.00;96007.91;4970674;28;20037;-79
2023/09/19 00:59:09;;;;;;;0.10;0.10;;;;;;;13.31;100.00;96010.34;4975238;28;20070;-79
2023/09/19 01:01:56;;;;;;;0.03;0.03;;;;;;;13.28;100.00;96010.88;4988612;28;20054;-79
2023/09/19 01:04:43;;;;;;;0.00;0.00;;;;;;;13.26;100.00;96010.34;4988521;28;20057;-79
2023/09/19 01:07:30;;;;;;;0.00;0.00;;;;;;;13.28;100.00;96008.19;4988731;28;20132;-79
2023/09/19 01:10:22;;;;;;;0.03;0.03;;;;;;;13.21;100.00;96011.16;4988374;28;20441;-78
2023/09/19 01:13:28;;;;;;;0.05;0.05;;;;;;;13.15;100.00;96012.25;4976613;28;20041;-78
2023/09/19 01:16:50;;;;;;;0.10;0.10;;;;;;;13.12;100.00;96018.16;4990272;28;20042;-78
2023/09/19 01:20:05;;;;;;;0.08;0.08;;;;;;;13.10;100.00;96020.34;4987379;28;20075;-78
2023/09/19 01:23:03;;;;;;;0.10;0.10;;;;;;;13.08;100.00;96019.81;4984645;28;20105;-78
2023/09/19 01:26:41;;;;;;;0.10;0.10;;;;;;;13.07;100.00;96024.38;4989469;28;20037;-78
2023/09/19 01:29:43;;;;;;;0.10;0.10;;;;;;;13.15;100.00;96014.94;4979079;28;20046;-78
2023/09/19 01:32:30;;;;;;;0.10;0.10;;;;;;;13.15;100.00;96031.06;4979104;28;20112;-78
2023/09/19 01:35:16;;;;;;;0.00;0.00;;;;;;;13.19;100.00;96018.69;4974856;28;20249;-78
2023/09/19 01:38:02;;;;;;;0.08;0.08;;;;;;;13.22;100.00;96026.22;4974561;28;20386;-77
2023/09/19 01:41:07;;;;;;;0.10;0.10;;;;;;;13.26;100.00;96031.84;4974758;28;20060;-77
2023/09/19 01:43:53;;;;;;;0.10;0.10;;;;;;;13.23;100.00;96043.97;4988510;28;20053;-77
2023/09/19 01:46:41;;;;;;;0.10;0.10;;;;;;;13.31;100.00;96039.91;4973863;28;20173;-77
2023/09/19 01:49:30;;;;;;;0.00;0.00;;;;;;;13.29;100.00;96040.16;4975585;28;20045;-77
2023/09/19 01:52:21;;;;;;;0.00;0.00;;;;;;;13.31;100.00;96043.38;4988655;28;20061;-77
2023/09/19 01:55:10;;;;;;;0.05;0.05;;;;;;;13.31;100.00;96037.22;4984844;28;20109;-77
2023/09/19 01:58:08;;;;;;;0.10;0.10;;;;;;;13.25;100.00;96046.38;4987244;28;20038;-77
2023/09/19 02:00:56;;;;;;;0.10;0.10;;;;;;;13.27;100.00;96046.88;4975436;28;20040;-77
2023/09/19 02:03:44;;;;;;;0.10;0.10;;;;;;;13.25;100.00;96055.22;4986838;28;20278;-77
2023/09/19 02:06:30;;;;;;;0.00;0.00;;;;;;;13.27;100.00;96057.63;4956245;28;20128;-78
2023/09/19 02:09:16;;;;;;;0.10;0.10;;;;;;;13.42;100.00;96062.16;4988416;28;20119;-77
2023/09/19 02:12:06;;;;;;;0.10;0.10;;;;;;;13.53;100.00;96059.13;4973554;28;20488;-77
2023/09/19 02:14:51;;;;;;;0.10;0.10;;;;;;;13.65;100.00;96070.34;4971910;28;20045;-78
2023/09/19 02:17:38;;;;;;;0.10;0.10;;;;;;;13.69;100.00;96072.47;4974062;28;20085;-78
2023/09/19 02:20:26;;;;;;;0.10;0.10;;;;;;;13.70;100.00;96082.19;4989973;28;20037;-77
2023/09/19 02:23:12;;;;;;;0.00;0.00;;;;;;;13.78;100.00;96073.53;4989030;28;20149;-77
2023/09/19 02:26:01;;;;;;;0.10;0.10;;;;;;;13.81;100.00;96076.47;4989164;28;20484;-77
2023/09/19 02:28:49;;;;;;;0.08;0.08;;;;;;;13.83;100.00;96079.66;4986626;28;20895;-78
2023/09/19 02:31:35;;;;;;;0.00;0.00;;;;;;;13.72;100.00;96077.31;4967169;28;20073;-77
2023/09/19 02:34:25;;;;;;;0.10;0.10;;;;;;;13.67;100.00;96070.06;4969758;28;20041;-78
2023/09/19 02:37:13;;;;;;;0.10;0.10;;;;;;;13.69;100.00;96080.56;4986444;28;20041;-78
2023/09/19 02:40:01;;;;;;;0.00;0.00;;;;;;;13.68;100.00;96087.00;4986931;28;20052;-78
2023/09/19 02:42:53;;;;;;;0.10;0.10;;;;;;;13.55;100.00;96077.69;4988913;28;20034;-78
2023/09/19 02:45:39;;;;;;;0.10;0.10;;;;;;;13.42;100.00;96081.75;4987166;28;20049;-77
2023/09/19 02:48:25;;;;;;;0.10;0.10;;;;;;;13.42;100.00;96081.75;4971636;28;20515;-78
2023/09/19 02:51:11;;;;;;;0.10;0.10;;;;;;;13.37;100.00;96079.09;4974133;28;20104;-77
2023/09/19 02:53:57;;;;;;;0.10;0.10;;;;;;;13.24;100.00;96085.06;4986625;28;20157;-78
2023/09/19 02:56:43;;;;;;;0.10;0.10;;;;;;;13.25;100.00;96092.84;4988306;28;20124;-78
2023/09/19 02:59:31;;;;;;;0.10;0.10;;;;;;;13.22;100.00;96096.06;4987469;28;20405;-78
2023/09/19 03:02:18;;;;;;;0.10;0.10;;;;;;;13.13;100.00;96095.00;4970159;28;20570;-78
2023/09/19 03:05:07;;;;;;;0.00;0.00;;;;;;;13.07;100.00;96104.13;4970909;28;20208;-78
2023/09/19 03:07:53;;;;;;;0.10;0.10;;;;;;;12.96;100.00;96106.03;4973470;28;20048;-78
2023/09/19 03:10:40;;;;;;;0.10;0.10;;;;;;;12.80;100.00;96102.59;4966086;28;20042;-78
2023/09/19 03:13:26;;;;;;;0.10;0.10;;;;;;;12.82;100.00;96103.09;4970592;28;20041;-77
2023/09/19 03:16:14;;;;;;;0.03;0.03;;;;;;;12.77;100.00;96096.97;4970550;28;20117;-77
2023/09/19 03:19:01;;;;;;;0.10;0.10;;;;;;;12.87;100.00;96093.44;4987496;28;20395;-78
2023/09/19 03:21:50;;;;;;;0.10;0.10;;;;;;;12.83;100.00;96102.03;4974791;28;20100;-77
2023/09/19 03:24:39;;;;;;;0.10;0.10;;;;;;;12.85;100.00;96106.34;4972231;28;20046;-77
2023/09/19 03:27:25;;;;;;;0.00;0.00;;;;;;;12.75;100.00;96109.81;4986610;28;20107;-77
2023/09/19 03:30:13;;;;;;;0.10;0.10;;;;;;;12.79;100.00;96105.53;4975570;28;20136;-78
2023/09/19 03:33:00;;;;;;;0.10;0.10;;;;;;;12.75;100.00;96120.56;4972260;28;20050;-77
2023/09/19 03:35:53;;;;;;;0.10;0.10;;;;;;;12.79;100.00;96114.41;4966090;28;20030;-79
2023/09/19 03:38:39;;;;;;;0.00;0.00;;;;;;;12.80;100.00;96112.53;4970298;28;20045;-78
2023/09/19 03:41:24;;;;;;;0.10;0.10;;;;;;;12.78;100.00;96098.56;4987653;28;20115;-78
2023/09/19 03:44:11;;;;;;;0.10;0.10;;;;;;;12.69;100.00;96113.63;4976256;28;20726;-78
2023/09/19 03:46:56;;;;;;;0.10;0.10;;;;;;;12.58;100.00;96110.13;4989362;28;20049;-78
2023/09/19 03:49:43;;;;;;;0.10;0.10;;;;;;;12.63;100.00;96112.81;4976028;28;20656;-78
2023/09/19 03:52:29;;;;;;;0.00;0.00;;;;;;;12.53;100.00;96110.94;4990608;28;20037;-78
2023/09/19 03:55:15;;;;;;;0.10;0.10;;;;;;;12.36;100.00;96110.38;4975913;28;20034;-78
2023/09/19 03:58:02;;;;;;;0.08;0.08;;;;;;;12.31;100.00;96109.59;4989853;28;20038;-78
2023/09/19 04:00:49;;;;;;;0.10;0.10;;;;;;;12.28;100.00;96118.97;4968975;28;20544;-78
2023/09/19 04:03:45;;;;;;;0.00;0.00;;;;;;;12.28;100.00;96121.63;4989417;28;20045;-78
2023/09/19 04:06:31;;;;;;;0.10;0.10;;;;;;;12.26;100.00;96118.44;4990886;28;20041;-78
2023/09/19 04:09:18;;;;;;;0.13;0.13;;;;;;;12.39;100.00;96125.97;4992143;28;20041;-78
2023/09/19 04:12:05;;;;;;;0.10;0.10;;;;;;;12.59;100.00;96125.13;4990636;28;20042;-78
2023/09/19 04:14:51;;;;;;;0.10;0.10;;;;;;;12.68;100.00;96122.72;4988874;28;20033;-78
2023/09/19 04:17:37;;;;;;;0.10;0.10;;;;;;;12.71;100.00;96120.31;4988062;28;20496;-78
2023/09/19 04:20:23;;;;;;;0.10;0.10;;;;;;;12.68;100.00;96120.03;4991369;28;20535;-78
2023/09/19 04:23:09;;;;;;;0.00;0.00;;;;;;;12.61;100.00;96125.69;4976255;28;20046;-78
2023/09/19 04:25:55;;;;;;;0.10;0.10;;;;;;;12.43;100.00;96134.25;4976242;28;20033;-78
2023/09/19 04:28:41;;;;;;;0.10;0.10;;;;;;;12.34;100.00;96134.00;4970390;28;20148;-78
2023/09/19 04:31:27;;;;;;;0.10;0.10;;;;;;;12.24;100.00;96134.00;4991092;28;20125;-78
2023/09/19 04:34:15;;;;;;;0.10;0.10;;;;;;;12.20;100.00;96125.66;4991784;28;20177;-78
2023/09/19 04:37:03;;;;;;;0.00;0.00;;;;;;;12.15;100.00;96132.91;4970231;28;20045;-78
2023/09/19 04:39:49;;;;;;;0.10;0.10;;;;;;;12.07;100.00;96131.56;4989629;28;20839;-78
2023/09/19 04:42:35;;;;;;;0.00;0.00;;;;;;;12.03;100.00;96135.81;4989088;28;20377;-78
2023/09/19 04:45:21;;;;;;;0.10;0.10;;;;;;;11.95;100.00;96131.78;4991232;28;20424;-78
2023/09/19 04:48:08;;;;;;;0.10;0.10;;;;;;;11.99;100.00;96134.75;4989378;28;20786;-78
2023/09/19 04:50:54;;;;;;;0.10;0.10;;;;;;;11.96;100.00;96138.75;4991757;28;20790;-79
2023/09/19 04:53:41;;;;;;;0.00;0.00;;;;;;;11.95;100.00;96141.72;4989515;28;20121;-78
2023/09/19 04:56:28;;;;;;;0.10;0.10;;;;;;;11.87;100.00;96137.66;4975833;28;20600;-78
2023/09/19 04:59:15;;;;;;;0.10;0.10;;;;;;;11.82;100.00;96142.19;4989211;28;20399;-79
2023/09/19 05:02:01;;;;;;;0.08;0.08;;;;;;;11.82;100.00;96139.53;4988521;28;20052;-79
2023/09/19 05:04:47;;;;;;;0.10;0.10;;;;;;;11.76;100.00;96143.25;4990850;28;20069;-78
2023/09/19 05:07:34;;;;;;;0.10;0.10;;;;;;;11.76;100.00;96127.16;4989984;28;20629;-78
2023/09/19 05:10:20;;;;;;;0.10;0.10;;;;;;;11.78;100.00;96136.53;4991561;28;20390;-78
2023/09/19 05:13:07;;;;;;;0.10;0.10;;;;;;;11.79;100.00;96132.78;4971957;28;20065;-78
2023/09/19 05:15:53;;;;;;;0.10;0.10;;;;;;;11.72;100.00;96143.75;4989035;28;20046;-78
2023/09/19 05:18:39;;;;;;;0.10;0.10;;;;;;;11.76;100.00;96130.66;4989529;28;20077;-78
2023/09/19 05:21:28;;;;;;;0.10;0.10;;;;;;;11.70;100.00;96142.41;4990166;28;20065;-78
2023/09/19 05:24:14;;;;;;;0.10;0.10;;;;;;;11.67;100.00;96137.56;4975731;28;20503;-78
2023/09/19 05:27:00;;;;;;;0.00;0.00;;;;;;;11.67;100.00;96135.72;4989494;28;20128;-78
2023/09/19 05:29:46;;;;;;;0.10;0.10;;;;;;;11.70;100.00;96142.41;4990769;28;20473;-78
2023/09/19 05:32:32;;;;;;;0.10;0.10;;;;;;;11.69;100.00;96130.09;4987467;28;20038;-78
2023/09/19 05:35:18;;;;;;;0.10;0.10;;;;;;;11.69;100.00;96135.44;4988867;28;20121;-78
2023/09/19 05:38:05;;;;;;;0.10;0.10;;;;;;;11.70;100.00;96142.41;4988703;28;20066;-77
2023/09/19 05:40:51;;;;;;;0.00;0.00;;;;;;;11.73;100.00;96144.56;4987630;28;20076;-78
2023/09/19 05:43:37;;;;;;;0.10;0.10;;;;;;;11.62;100.00;96141.03;4988697;28;20034;-78
2023/09/19 05:46:23;;;;;;;0.10;0.10;;;;;;;11.62;100.00;96153.63;4989762;28;20050;-78
2023/09/19 05:49:08;;;;;;;0.10;0.10;;;;;;;11.52;100.00;96153.59;4988686;28;20041;-78
2023/09/19 05:51:56;;;;;;;0.15;0.15;;;;;;;11.47;100.00;96154.38;4988103;28;20251;-78
2023/09/19 05:54:42;;;;;;;0.10;0.10;;;;;;;11.54;100.00;96156.81;4989471;28;20575;-78
2023/09/19 05:57:28;;;;;;;0.10;0.10;;;;;;;11.63;100.00;96163.28;4987970;28;20125;-78
2023/09/19 06:00:14;;;;;;;0.10;0.10;;;;;;;11.69;100.00;96176.44;4988592;28;20046;-78
2023/09/19 06:03:01;;;;;;;0.10;0.10;;;;;;;11.80;100.00;96182.69;4988867;28;20038;-79
2023/09/19 06:05:49;;;;;;;0.10;0.10;;;;;;;11.82;100.00;96193.94;4985905;28;20034;-78
2023/09/19 06:08:35;;;;;;;0.10;0.10;;;;;;;11.95;100.00;96198.81;4989285;28;20038;-79
2023/09/19 06:11:21;;;;;;;0.10;0.10;;;;;;;11.88;100.00;96203.63;4991352;28;20635;-78
2023/09/19 06:14:07;;;;;;;0.10;0.10;;;;;;;11.88;100.00;96203.63;4989199;28;20112;-78
2023/09/19 06:16:54;;;;;;;0.10;0.10;;;;;;;11.84;100.00;96204.44;4986918;28;20057;-79
2023/09/19 06:19:39;;;;;;;0.10;0.10;;;;;;;11.85;100.00;96212.19;4989159;28;20042;-79
2023/09/19 06:22:25;;;;;;;0.10;0.10;;;;;;;11.82;100.00;96206.53;4988106;28;20162;-79
2023/09/19 06:25:18;;;;;;;0.10;0.10;;;;;;;11.88;100.00;96214.34;4973365;28;20046;-78
2023/09/19 06:28:05;;;;;;;0.10;0.10;;;;;;;11.88;100.00;96218.91;4980781;28;20041;-78
2023/09/19 06:30:52;;;;;;;0.10;0.10;;;;;;;11.84;100.00;96220.50;4987719;28;20041;-78
2023/09/19 06:33:41;;;;;;;0.00;0.00;;;;;;;12.12;100.00;96224.63;4987268;28;20046;-78
2023/09/19 06:36:27;;;;;;;0.10;0.10;;;;;;;12.23;100.00;96220.91;4986495;28;20030;-81
2023/09/19 06:39:12;;;;;;;0.10;0.10;;;;;;;12.35;100.00;96221.47;4987723;28;20037;-80
2023/09/19 06:42:00;;;;;;;0.10;0.10;;;;;;;12.42;100.00;96235.44;4988791;28;20629;-81
2023/09/19 06:44:46;;;;;;;0.00;0.00;;;;;;;12.54;100.00;96241.38;4972741;28;20061;-80
2023/09/19 06:47:32;;;;;;;0.10;0.10;;;;;;;12.68;100.00;96246.19;4985315;28;20076;-80
2023/09/19 06:50:20;;;;;;;0.10;0.10;;;;;;;12.83;100.00;96256.97;4985118;28;20739;-80
2023/09/19 06:53:06;;;;;;;0.10;0.10;;;;;;;12.91;100.00;96259.13;4973306;28;20335;-79
2023/09/19 06:55:51;;;;;;;0.05;0.05;;;;;;;12.93;100.00;96253.50;4989266;28;20477;-80
2023/09/19 06:58:38;;;;;;;0.10;0.10;;;;;;;13.06;100.00;96264.50;4987294;28;20061;-81
2023/09/19 07:01:25;;;;;;;0.10;0.10;;;;;;;13.23;100.00;96272.34;4988905;28;20038;-80
2023/09/19 07:04:10;;;;;;;0.10;0.10;;;;;;;13.25;100.00;96275.56;4988772;28;20042;-80
2023/09/19 07:06:56;;;;;;;0.10;0.10;;;;;;;13.19;100.00;96275.78;4987700;28;20102;-80
2023/09/19 07:09:42;;;;;;;0.10;0.10;;;;;;;13.25;100.00;96280.94;4988157;28;20543;-80
2023/09/19 07:12:28;;;;;;;0.10;0.10;;;;;;;13.23;100.00;96276.88;4988914;28;20425;-80
2023/09/19 07:15:14;;;;;;;0.10;0.10;;;;;;;13.19;100.00;96281.16;4992271;28;20036;-80
2023/09/19 07:18:00;;;;;;;0.10;0.10;;;;;;;13.28;100.00;96285.75;4990545;28;20436;-80
2023/09/19 07:20:50;;;;;;;0.10;0.10;;;;;;;13.04;100.00;96273.91;4987876;28;20223;-80
2023/09/19 07:23:35;;;;;;;0.10;0.10;;;;;;;13.22;100.00;96292.19;4990319;28;20061;-80
2023/09/19 07:26:21;;;;;;;0.10;0.10;;;;;;;13.43;100.00;96287.63;4990997;28;20169;-81
2023/09/19 07:29:08;;;;;;;0.10;0.10;;;;;;;13.49;100.00;96291.94;4992474;28;20038;-80
2023/09/19 07:31:54;;;;;;;0.10;0.10;;;;;;;13.54;100.00;96291.94;4991869;28;20046;-80
2023/09/19 07:34:40;;;;;;;0.10;0.10;;;;;;;13.66;100.00;96288.94;4991375;28;20469;-80
2023/09/19 07:37:26;;;;;;;0.10;0.10;;;;;;;13.54;100.00;96288.41;4992682;28;20049;-80
2023/09/19 07:40:12;;;;;;;0.00;0.00;;;;;;;13.65;100.00;96290.03;4992268;28;20540;-80
2023/09/19 07:43:01;;;;;;;0.10;0.10;;;;;;;13.78;100.00;96294.03;4992990;28;20046;-79
2023/09/19 07:45:48;;;;;;;0.10;0.10;;;;;;;13.47;100.00;96298.66;4991621;28;20894;-80
2023/09/19 07:48:35;;;;;;;0.10;0.10;;;;;;;13.53;100.00;96290.28;4991016;28;20050;-80
2023/09/19 07:51:21;;;;;;;0.10;0.10;;;;;;;13.75;100.00;96289.19;4994908;28;20677;-80
2023/09/19 07:54:08;;;;;;;0.10;0.10;;;;;;;13.93;100.00;96281.34;4990945;28;20116;-79
2023/09/19 07:56:53;;;;;;;0.10;0.10;;;;;;;14.02;100.00;96284.28;4990822;28;20132;-81
2023/09/19 07:59:41;;;;;;;0.10;0.10;;;;;;;14.00;100.00;96289.09;4992294;28;20616;-80
2023/09/19 08:02:28;;;;;;;0.10;0.10;;;;;;;14.02;100.00;96286.16;4990556;28;20379;-80
2023/09/19 08:05:18;;;;;;;0.03;0.03;;;;;;;14.11;100.00;96287.22;4994319;28;20030;-80
2023/09/19 08:08:04;;;;;;;0.10;0.10;;;;;;;14.30;100.00;96284.69;4990924;28;20240;-80
2023/09/19 08:10:57;;;;;;;0.10;0.10;;;;;;;13.99;100.00;96284.81;4991610;28;20068;-80
2023/09/19 08:13:48;;;;;;;0.10;0.10;;;;;;;14.32;100.00;96290.59;4989882;28;20042;-80
2023/09/19 08:16:34;;;;;;;0.10;0.10;;;;;;;14.39;100.00;96283.03;4990054;28;20030;-79
2023/09/19 08:19:23;;;;;;;0.10;0.10;;;;;;;14.64;100.00;96277.56;4991314;28;20897;-80
2023/09/19 08:22:10;;;;;;;0.00;0.00;;;;;;;14.09;100.00;96292.06;4992932;28;20037;-81
2023/09/19 08:24:56;;;;;;;0.10;0.10;;;;;;;14.17;100.00;96295.00;4987745;28;20405;-80
2023/09/19 08:27:43;;;;;;;0.10;0.10;;;;;;;14.13;100.00;96299.28;4972381;28;20504;-80
2023/09/19 08:30:30;;;;;;;0.10;0.10;;;;;;;14.44;100.00;96299.19;4985644;28;20509;-80
2023/09/19 08:33:16;;;;;;;0.08;0.08;;;;;;;14.67;100.00;96301.25;4988766;28;20053;-80
2023/09/19 08:36:07;;;;;;;0.10;0.10;;;;;;;14.72;100.00;96303.13;4990814;28;20653;-81
2023/09/19 08:38:52;;;;;;;0.10;0.10;;;;;;;14.90;100.00;96305.16;4989321;28;20046;-79
2023/09/19 08:41:38;;;;;;;0.10;0.10;;;;;;;14.68;100.00;96304.75;4988301;28;20057;-79
2023/09/19 08:44:24;;;;;;;0.00;0.00;;;;;;;14.48;100.00;96319.13;4985307;28;20046;-79
2023/09/19 08:47:14;;;;;;;0.10;0.10;;;;;;;14.60;100.00;96308.81;4987174;28;20053;-79
2023/09/19 08:50:19;;;;;;;0.10;0.10;;;;;;;14.64;100.00;96301.00;4973052;28;20496;-80
2023/09/19 08:53:12;;;;;;;0.10;0.10;;;;;;;14.58;100.00;96305.59;4984994;28;20779;-79
2023/09/19 08:56:01;;;;;;;0.10;0.10;;;;;;;14.11;100.00;96306.84;4973659;28;20543;-79
2023/09/19 08:58:54;;;;;;;0.10;0.10;;;;;;;14.29;100.00;96310.81;4981327;28;20046;-79
2023/09/19 09:01:41;;;;;;;0.10;0.10;;;;;;;14.49;100.00;96307.28;4975258;28;20057;-80
2023/09/19 09:04:28;;;;;;;0.10;0.10;;;;;;;14.31;100.00;96313.22;4985572;28;20046;-79
2023/09/19 09:07:14;;;;;;;0.10;0.10;;;;;;;14.76;100.00;96321.13;4987621;28;20285;-79
2023/09/19 09:10:02;;;;;;;0.10;0.10;;;;;;;14.91;100.00;96319.41;4989757;28;20056;-80
2023/09/19 09:12:54;;;;;;;0.10;0.10;;;;;;;15.03;100.00;96327.97;4986698;28;20546;-79
2023/09/19 09:15:41;;;;;;;0.10;0.10;;;;;;;15.21;100.00;96326.50;4991991;28;20077;-79
2023/09/19 09:18:29;;;;;;;0.10;0.10;;;;;;;15.29;100.00;96331.28;4990577;28;20042;-79
2023/09/19 09:21:16;;;;;;;0.10;0.10;;;;;;;14.95;100.00;96329.38;4991498;28;20045;-79
2023/09/19 09:24:33;;;;;;;0.10;0.10;;;;;;;15.26;100.00;96329.97;4991256;28;20045;-80
2023/09/19 09:27:20;;;;;;;0.10;0.10;;;;;;;15.56;100.00;96328.09;4989214;28;20034;-79
2023/09/19 09:30:07;;;;;;;0.10;0.10;;;;;;;15.95;100.00;96335.31;4989583;28;20041;-80
2023/09/19 09:33:08;;;;;;;0.10;0.10;;;;;;;15.56;100.00;96339.72;4987232;28;20054;-80
2023/09/19 09:35:58;;;;;;;0.10;0.10;;;;;;;15.61;100.00;96341.56;4989143;28;20491;-80
2023/09/19 09:38:50;;;;;;;0.10;0.10;;;;;;;15.65;100.00;96322.94;4988592;28;20046;-79
2023/09/19 09:41:37;;;;;;;0.10;0.10;;;;;;;15.63;100.00;96339.38;4990024;28;20878;-80
2023/09/19 09:44:23;;;;;;;0.00;0.00;;;;;;;15.65;100.00;96344.53;4987487;28;20176;-81
2023/09/19 09:47:27;;;;;;;0.10;0.10;;;;;;;16.33;100.00;96341.66;4988063;28;20037;-81
2023/09/19 09:50:17;;;;;;;0.10;0.10;;;;;;;16.13;100.00;96340.00;4989611;28;20038;-81
2023/09/19 09:53:06;;;;;;;0.10;0.10;;;;;;;15.76;100.00;96336.03;4989080;28;20583;-81
2023/09/19 09:56:02;;;;;;;0.00;0.00;;;;;;;16.21;100.00;96338.56;4986653;28;21189;-80
2023/09/19 09:58:48;;;;;;;0.10;0.10;;;;;;;16.87;100.00;96338.56;4987721;28;20038;-81
2023/09/19 10:01:50;;;;;;;0.10;0.10;;;;;;;16.91;100.00;96328.00;4987473;28;20117;-81
2023/09/19 10:04:42;;;;;;;0.10;0.10;;;;;;;16.68;100.00;96343.13;4989334;28;20096;-81
2023/09/19 10:07:35;;;;;;;0.17;0.17;;;;;;;17.08;100.00;96327.47;4989262;28;20052;-81
2023/09/19 10:13:31;;;;;;;0.20;0.20;;;;;;;17.82;100.00;96331.19;4988082;28;20080;-80
2023/09/19 10:16:18;;;;;;;0.10;0.10;;;;;;;17.22;100.00;96331.06;4988642;28;20045;-81
2023/09/19 10:19:08;;;;;;;0.10;0.10;;;;;;;18.22;100.00;96331.56;4969090;28;20045;-81
2023/09/19 10:21:58;;;;;;;0.13;0.13;;;;;;;17.47;100.00;96333.34;4987347;28;20042;-80
2023/09/19 10:24:46;;;;;;;0.10;0.10;;;;;;;17.89;100.00;96328.09;4972294;28;20504;-80
2023/09/19 10:27:37;;;;;;;0.10;0.10;;;;;;;18.01;100.00;96325.72;4988986;28;20128;-81
2023/09/19 10:30:25;;;;;;;0.10;0.10;;;;;;;19.11;100.00;96314.81;4987923;28;20413;-80
2023/09/19 10:33:13;;;;;;;0.10;0.10;;;;;;;18.09;100.00;96320.41;4987175;28;20356;-81
2023/09/19 10:36:00;;;;;;;0.10;0.10;;;;;;;19.38;100.00;96308.50;4985228;28;20042;-80
2023/09/19 10:38:50;;;;;;;0.10;0.10;;;;;;;20.12;99.77;96310.69;4986518;28;20042;-82
2023/09/19 10:41:37;;;;;;;0.10;0.10;;;;;;;20.37;91.26;96309.19;4989896;28;20404;-79
2023/09/19 10:44:26;;;;;;;0.10;0.10;;;;;;;17.93;100.00;96310.97;4983720;28;20545;-79
2023/09/19 10:47:13;;;;;;;0.10;0.10;;;;;;;19.08;100.00;96304.56;4985421;28;20583;-80
2023/09/19 10:49:59;;;;;;;0.10;0.10;;;;;;;20.05;94.34;96297.56;4987669;28;20762;-79
2023/09/19 10:52:46;;;;;;;0.10;0.10;;;;;;;20.35;95.19;96300.56;4953538;28;20048;-78
2023/09/19 10:55:35;;;;;;;0.10;0.10;;;;;;;19.43;100.00;96309.16;4970546;28;20543;-79
2023/09/19 10:58:28;;;;;;;0.10;0.10;;;;;;;19.01;100.00;96309.63;4985655;28;20541;-79
2023/09/19 11:01:15;;;;;;;0.10;0.10;;;;;;;19.60;97.76;96316.63;4985490;28;20500;-79
2023/09/19 11:04:28;;;;;;;0.10;0.10;;;;;;;20.44;92.10;96310.38;4985337;28;20038;-79
2023/09/19 11:07:15;;;;;;;0.20;0.20;;;;;;;21.17;88.07;96297.06;4985490;28;20081;-79
2023/09/19 11:10:03;;;;;;;0.10;0.10;;;;;;;20.47;92.13;96303.53;4985377;28;20033;-78
2023/09/19 11:12:48;;;;;;;0.10;0.10;;;;;;;20.57;84.62;96309.44;4983045;28;20149;-79
2023/09/19 11:15:59;;;;;;;0.10;0.10;;;;;;;20.28;88.11;96309.97;4987017;28;20034;-78
2023/09/19 11:18:46;;;;;;;0.10;0.10;;;;;;;18.33;100.00;96319.41;4981282;28;20049;-78
2023/09/19 11:21:34;;;;;;;0.00;0.00;;;;;;;18.13;100.00;96327.91;4985082;28;20046;-78
2023/09/19 11:24:24;;;;;;;0.10;0.10;;;;;;;21.08;89.31;96310.66;4979689;28;20387;-78
2023/09/19 11:27:13;;;;;;;0.10;0.10;;;;;;;22.39;70.02;96322.97;4983945;28;20128;-78
2023/09/19 11:30:27;;;;;;;0.10;0.10;;;;;;;21.38;79.46;96300.75;4982443;28;20070;-78
2023/09/19 11:33:20;;;;;;;0.10;0.10;;;;;;;21.55;82.80;96299.13;4981971;28;20049;-79
2023/09/19 11:36:12;;;;;;;0.15;0.15;;;;;;;25.74;54.38;96293.47;4985685;28;20030;-80
2023/09/19 11:38:57;;;;;;;0.10;0.10;;;;;;;27.89;44.86;96305.56;4981618;28;20409;-80
2023/09/19 11:41:46;;;;;;;0.15;0.15;;;;;;;23.40;57.08;96306.63;4984328;28;20140;-78
2023/09/19 11:44:34;;;;;;;0.10;0.10;;;;;;;23.57;60.54;96276.41;4984590;28;20042;-79
2023/09/19 11:47:24;;;;;;;0.30;0.30;;;;;;;27.19;46.64;96301.00;4961825;28;20640;-80
2023/09/19 11:50:11;;;;;;;0.10;0.10;;;;;;;25.94;41.42;96288.13;4983912;28;20042;-80
2023/09/19 11:52:57;;;;;;;0.10;0.10;;;;;;;25.12;45.76;96302.22;4972421;28;20049;-80
2023/09/19 11:55:45;;;;;;;0.10;0.10;;;;;;;22.82;58.06;96315.69;4984080;28;20057;-79
2023/09/19 11:58:31;;;;;;;0.10;0.10;;;;;;;24.61;51.99;96297.16;4982504;28;20041;-79
2023/09/19 12:01:28;;;;;;;0.10;0.10;;;;;;;25.69;45.15;96296.47;4983729;28;20038;-79
2023/09/19 12:04:15;;;;;;;0.10;0.10;;;;;;;28.26;37.70;96280.31;4983986;28;20500;-80
2023/09/19 12:07:01;;;;;;;0.10;0.10;;;;;;;26.63;40.34;96297.72;4988136;28;20287;-80
2023/09/19 12:09:50;;;;;;;0.10;0.10;;;;;;;25.17;41.96;96297.31;4968351;28;20474;-80
2023/09/19 12:12:36;;;;;;;0.20;0.20;;;;;;;24.34;48.59;96297.81;4984636;28;20077;-79
2023/09/19 12:15:34;;;;;;;0.00;0.00;;;;;;;23.59;50.08;96293.28;4989681;28;20030;-80
2023/09/19 12:18:28;;;;;;;0.10;0.10;;;;;;;24.80;45.22;96290.28;4981168;28;20034;-80
2023/09/19 12:21:27;;;;;;;0.03;0.03;;;;;;;28.11;37.54;96287.50;4989340;28;20080;-79
2023/09/19 12:24:13;;;;;;;0.10;0.10;;;;;;;26.69;39.30;96307.25;4985807;28;20045;-80
2023/09/19 12:27:01;;;;;;;0.00;0.00;;;;;;;26.53;39.70;96303.75;4986593;28;20034;-79
2023/09/19 12:29:49;;;;;;;0.10;0.10;;;;;;;24.81;44.10;96300.88;4990496;28;20052;-79
2023/09/19 12:32:36;;;;;;;0.10;0.10;;;;;;;24.00;47.72;96299.81;4981547;28;20459;-80
2023/09/19 12:35:28;;;;;;;0.10;0.10;;;;;;;23.80;51.05;96293.25;4985546;28;20038;-79
2023/09/19 12:38:35;;;;;;;0.20;0.20;;;;;;;27.68;38.23;96288.66;4966579;28;20096;-79
2023/09/19 12:41:22;;;;;;;0.10;0.10;;;;;;;30.89;30.01;96290.22;4988615;28;20111;-80
2023/09/19 12:44:12;;;;;;;0.10;0.10;;;;;;;31.82;28.04;96292.31;4983704;28;20068;-81
2023/09/19 12:46:59;;;;;;;0.10;0.10;;;;;;;30.65;30.95;96289.66;4984122;28;20068;-80
2023/09/19 12:50:18;;;;;;;0.10;0.10;;;;;;;32.96;25.98;96295.25;4988933;28;20037;-81
2023/09/19 12:53:04;;;;;;;0.10;0.10;;;;;;;32.25;27.67;96266.72;4921787;28;20520;-81
2023/09/19 12:55:59;;;;;;;0.10;0.10;;;;;;;31.56;27.63;96287.06;4977542;28;20145;-80
2023/09/19 12:59:03;;;;;;;0.00;0.00;;;;;;;33.71;25.97;96274.84;4984541;28;20437;-80
2023/09/19 13:02:03;;;;;;;0.10;0.10;;;;;;;30.99;28.31;96272.97;4987544;28;20041;-81
2023/09/19 13:04:53;;;;;;;0.10;0.10;;;;;;;29.90;30.95;96277.91;4986693;28;20041;-81
2023/09/19 13:07:43;;;;;;;0.10;0.10;;;;;;;30.26;30.92;96275.53;4972412;28;20038;-81
2023/09/19 13:10:29;;;;;;;0.00;0.00;;;;;;;29.55;30.97;96272.78;4988543;28;20543;-80